Laguepe — 9HAI9 — position and weather

sailwx.info

Track history (hours):
 
Tides and Currents Weather Stations Pressure Air Temp Water Temp Dewpoint Dewpoint Depression Visibility Wind Speed Wind Dir Waves Ship Positions

Laguepe

Last reported at 2015-Mar-28 17:33 UTC. Time now 2015-Mar-28 17:49 UTC.
Position N 43°52' E 009°24'.

Length 81 m; draft 2.8 m.

Type: Cargo ship. MMSI: 256681000.

Date/timePositionNaut miles runAvg speedWind from/ knotsBaromVisibWave heightAir tempDewpointWater temp
2015-Mar-28 17:33N 43°52' E 009°24'8 8.3
2015-Mar-28 16:33N 43°55' E 009°35'8 8.2
2015-Mar-28 15:33N 43°58' E 009°46'6 6.5
2015-Mar-28 14:33N 44°03' E 009°52'4 4.0
2015-Mar-28 13:33N 44°06' E 009°50'0 0.0
2015-Mar-28 12:33N 44°06' E 009°50'0 0.0
2015-Mar-28 11:33N 44°06' E 009°50'0 0.0
2015-Mar-28 10:33N 44°06' E 009°50'0 0.0
2015-Mar-28 09:33N 44°06' E 009°50'0 0.0
2015-Mar-28 08:33N 44°06' E 009°50'0 0.0
2015-Mar-28 07:33N 44°06' E 009°50'0 0.0
2015-Mar-28 06:33N 44°06' E 009°50'0 0.0
2015-Mar-28 05:33N 44°06' E 009°50'0 0.0
2015-Mar-28 04:33N 44°06' E 009°50'0 0.0
2015-Mar-28 03:33N 44°06' E 009°50'0 0.0
2015-Mar-28 02:33N 44°06' E 009°50'0 0.0
2015-Mar-28 01:33N 44°06' E 009°50'0 0.0
2015-Mar-28 00:33N 44°06' E 009°50'0 0.0
2015-Mar-27 23:33N 44°06' E 009°50'0 0.0
2015-Mar-27 22:33N 44°06' E 009°50'0 0.0
2015-Mar-27 21:33N 44°06' E 009°50'0 0.0
2015-Mar-27 20:33N 44°06' E 009°50'0 0.0
2015-Mar-27 19:33N 44°06' E 009°50'0 0.0
2015-Mar-27 18:33N 44°06' E 009°50'0 0.0
2015-Mar-27 17:33N 44°06' E 009°50'0 0.0
2015-Mar-27 16:33N 44°06' E 009°50'0 0.0
2015-Mar-27 15:33N 44°06' E 009°50'0 0.0
2015-Mar-27 14:33N 44°06' E 009°50'0 0.0
2015-Mar-27 13:33N 44°06' E 009°50'0 0.0
2015-Mar-27 12:33N 44°06' E 009°50'0 0.0
2015-Mar-27 11:34N 44°06' E 009°50'0 0.0
2015-Mar-27 10:33N 44°06' E 009°50'0 0.0
2015-Mar-27 09:33N 44°06' E 009°50'0 0.0
2015-Mar-27 08:33N 44°06' E 009°50'0 0.0
2015-Mar-27 07:33N 44°06' E 009°50'0 0.0
2015-Mar-27 06:33N 44°06' E 009°50'0 0.0
2015-Mar-27 05:33N 44°06' E 009°50'5 5.4
2015-Mar-27 04:33N 44°02' E 009°54'4 4.1
2015-Mar-27 03:33N 43°58' E 009°52'6 5.7
2015-Mar-27 02:33N 43°57' E 009°44'6 6.1
2015-Mar-27 01:33N 43°54' E 009°36'6 6.4
2015-Mar-27 00:33N 43°51' E 009°29'6 6.4
2015-Mar-26 23:33N 43°48' E 009°21'6 6.3
2015-Mar-26 22:33N 43°46' E 009°13'7 6.6
2015-Mar-26 21:33N 43°43' E 009°04'7 6.9
2015-Mar-26 20:33N 43°40' E 008°56'7 6.8
2015-Mar-26 19:33N 43°37' E 008°48'6 6.2
2015-Mar-26 18:33N 43°34' E 008°40'6 6.1
2015-Mar-26 17:33N 43°31' E 008°32'54 4.2
2015-Mar-26 04:33N 43°11' E 007°23'8 7.8
2015-Mar-26 03:33N 43°09' E 007°13'8 7.9
2015-Mar-26 02:33N 43°06' E 007°02'8 7.6
2015-Mar-26 01:33N 43°03' E 006°53'8 8.0
2015-Mar-26 00:33N 43°01' E 006°42'12 8.1
2015-Mar-25 23:04N 42°57' E 006°27'51 7.6
2015-Mar-25 16:21N 43°11' E 005°19'8 8.1
2015-Mar-25 15:24N 43°15' E 005°10'7 7.7
2015-Mar-25 14:33N 43°18' E 005°02'7 7.5
2015-Mar-25 13:33N 43°24' E 004°55'  
2015-Mar-22 00:22N 43°23' E 004°48'0 0.0
2015-Mar-21 20:33N 43°23' E 004°48'2 2.4
2015-Mar-21 19:33N 43°23' E 004°52'7 6.6
2015-Mar-21 18:33N 43°20' E 004°59'7 6.6
2015-Mar-21 17:33N 43°16' E 005°07'8 6.7
2015-Mar-21 16:22N 43°12' E 005°16'62 6.3
2015-Mar-21 06:32N 43°07' E 006°41'8 8.1
2015-Mar-21 05:33N 43°13' E 006°49'8 8.4
2015-Mar-21 04:33N 43°18' E 006°58'8 7.8
2015-Mar-21 03:33N 43°23' E 007°07'8 8.2
2015-Mar-21 02:33N 43°28' E 007°15'9 8.6
2015-Mar-21 01:33N 43°33' E 007°25'8 8.1
2015-Mar-21 00:33N 43°38' E 007°34'44 8.1
2015-Mar-20 19:07N 44°04' E 008°23'5 8.8
2015-Mar-20 18:33N 44°08' E 008°27'8 8.5
2015-Mar-20 17:33N 44°16' E 008°31'3 3.1
2015-Mar-20 16:33N 44°19' E 008°30'0 0.0
2015-Mar-20 15:33N 44°19' E 008°30'0 0.0
2015-Mar-20 14:33N 44°19' E 008°30'0 0.0
2015-Mar-20 13:33N 44°19' E 008°30'0 0.0
2015-Mar-20 12:33N 44°19' E 008°30'0 0.0
2015-Mar-20 11:33N 44°19' E 008°30'0 0.0
2015-Mar-20 10:33N 44°19' E 008°30'0 0.0
2015-Mar-20 09:33N 44°19' E 008°30'0 0.0
2015-Mar-20 08:33N 44°19' E 008°30'0 0.0
2015-Mar-20 07:33N 44°19' E 008°30'0 0.0
2015-Mar-20 06:33N 44°19' E 008°30'0 0.0
2015-Mar-20 05:32N 44°19' E 008°30'2 2.4
2015-Mar-20 04:33N 44°17' E 008°31'5 5.0
2015-Mar-20 03:33N 44°12' E 008°31'5 5.5
2015-Mar-20 02:33N 44°07' E 008°27'6 5.7
2015-Mar-20 01:33N 44°03' E 008°22'7 5.7
2015-Mar-20 00:19N 43°57' E 008°16'5 6.0
2015-Mar-19 23:32N 43°54' E 008°11'6 5.9
2015-Mar-19 22:33N 43°51' E 008°04'6 6.0
2015-Mar-19 21:33N 43°48' E 007°57'6 6.2
2015-Mar-19 20:33N 43°45' E 007°50'6 6.1
2015-Mar-19 19:33N 43°41' E 007°43'6 6.0
2015-Mar-19 18:32N 43°38' E 007°35'6 6.3
2015-Mar-19 17:32N 43°35' E 007°28'6 5.8
2015-Mar-19 16:33N 43°32' E 007°21'6 6.2
2015-Mar-19 15:33N 43°28' E 007°15'7 6.7
2015-Mar-19 14:33N 43°24' E 007°08'7 6.7
2015-Mar-19 13:33N 43°20' E 007°00'6 6.4
2015-Mar-19 12:33N 43°15' E 006°54'7 6.8
2015-Mar-19 11:29N 43°10' E 006°46'7 7.4
2015-Mar-19 10:33N 43°06' E 006°39'7 6.9
2015-Mar-19 09:33N 43°01' E 006°33'7 6.5
2015-Mar-19 08:33N 42°58' E 006°25'44 6.2
2015-Mar-19 01:32N 43°08' E 005°26'7 7.1
2015-Mar-19 00:31N 43°11' E 005°18'8 8.4
2015-Mar-18 23:33N 43°16' E 005°08'8 8.4
2015-Mar-18 22:33N 43°20' E 004°58'7 6.8
2015-Mar-18 21:33N 43°23' E 004°50'5 4.1
2015-Mar-18 20:18N 43°26' E 004°44'  
Track history (hours):
 
Tides and Currents Weather Stations Pressure Air Temp Water Temp Dewpoint Dewpoint Depression Visibility Wind Speed Wind Dir Waves Ship Positions

Laguepe

Last reported at 2015-Mar-28 17:33 UTC. Time now 2015-Mar-28 17:49 UTC.
Position N 43°52' E 009°24'.

Length 81 m; draft 2.8 m.

Type: Cargo ship. MMSI: 256681000.

Date/timePositionNaut miles runAvg speedWind from/ knotsBaromVisibWave heightAir tempDewpointWater temp
2015-Mar-28 17:33N 43°52' E 009°24'8 8.3
2015-Mar-28 16:33N 43°55' E 009°35'8 8.2
2015-Mar-28 15:33N 43°58' E 009°46'6 6.5
2015-Mar-28 14:33N 44°03' E 009°52'4 4.0
2015-Mar-28 13:33N 44°06' E 009°50'0 0.0
2015-Mar-28 12:33N 44°06' E 009°50'0 0.0
2015-Mar-28 11:33N 44°06' E 009°50'0 0.0
2015-Mar-28 10:33N 44°06' E 009°50'0 0.0
2015-Mar-28 09:33N 44°06' E 009°50'0 0.0
2015-Mar-28 08:33N 44°06' E 009°50'0 0.0
2015-Mar-28 07:33N 44°06' E 009°50'0 0.0
2015-Mar-28 06:33N 44°06' E 009°50'0 0.0
2015-Mar-28 05:33N 44°06' E 009°50'0 0.0
2015-Mar-28 04:33N 44°06' E 009°50'0 0.0
2015-Mar-28 03:33N 44°06' E 009°50'0 0.0
2015-Mar-28 02:33N 44°06' E 009°50'0 0.0
2015-Mar-28 01:33N 44°06' E 009°50'0 0.0
2015-Mar-28 00:33N 44°06' E 009°50'0 0.0
2015-Mar-27 23:33N 44°06' E 009°50'0 0.0
2015-Mar-27 22:33N 44°06' E 009°50'0 0.0
2015-Mar-27 21:33N 44°06' E 009°50'0 0.0
2015-Mar-27 20:33N 44°06' E 009°50'0 0.0
2015-Mar-27 19:33N 44°06' E 009°50'0 0.0
2015-Mar-27 18:33N 44°06' E 009°50'0 0.0
2015-Mar-27 17:33N 44°06' E 009°50'0 0.0
2015-Mar-27 16:33N 44°06' E 009°50'0 0.0
2015-Mar-27 15:33N 44°06' E 009°50'0 0.0
2015-Mar-27 14:33N 44°06' E 009°50'0 0.0
2015-Mar-27 13:33N 44°06' E 009°50'0 0.0
2015-Mar-27 12:33N 44°06' E 009°50'0 0.0
2015-Mar-27 11:34N 44°06' E 009°50'0 0.0
2015-Mar-27 10:33N 44°06' E 009°50'0 0.0
2015-Mar-27 09:33N 44°06' E 009°50'0 0.0
2015-Mar-27 08:33N 44°06' E 009°50'0 0.0
2015-Mar-27 07:33N 44°06' E 009°50'0 0.0
2015-Mar-27 06:33N 44°06' E 009°50'0 0.0
2015-Mar-27 05:33N 44°06' E 009°50'5 5.4
2015-Mar-27 04:33N 44°02' E 009°54'4 4.1
2015-Mar-27 03:33N 43°58' E 009°52'6 5.7
2015-Mar-27 02:33N 43°57' E 009°44'6 6.1
2015-Mar-27 01:33N 43°54' E 009°36'6 6.4
2015-Mar-27 00:33N 43°51' E 009°29'6 6.4
2015-Mar-26 23:33N 43°48' E 009°21'6 6.3
2015-Mar-26 22:33N 43°46' E 009°13'7 6.6
2015-Mar-26 21:33N 43°43' E 009°04'7 6.9
2015-Mar-26 20:33N 43°40' E 008°56'7 6.8
2015-Mar-26 19:33N 43°37' E 008°48'6 6.2
2015-Mar-26 18:33N 43°34' E 008°40'6 6.1
2015-Mar-26 17:33N 43°31' E 008°32'54 4.2
2015-Mar-26 04:33N 43°11' E 007°23'8 7.8
2015-Mar-26 03:33N 43°09' E 007°13'8 7.9
2015-Mar-26 02:33N 43°06' E 007°02'8 7.6
2015-Mar-26 01:33N 43°03' E 006°53'8 8.0
2015-Mar-26 00:33N 43°01' E 006°42'12 8.1
2015-Mar-25 23:04N 42°57' E 006°27'51 7.6
2015-Mar-25 16:21N 43°11' E 005°19'8 8.1
2015-Mar-25 15:24N 43°15' E 005°10'7 7.7
2015-Mar-25 14:33N 43°18' E 005°02'7 7.5
2015-Mar-25 13:33N 43°24' E 004°55'  
2015-Mar-22 00:22N 43°23' E 004°48'0 0.0
2015-Mar-21 20:33N 43°23' E 004°48'2 2.4
2015-Mar-21 19:33N 43°23' E 004°52'7 6.6
2015-Mar-21 18:33N 43°20' E 004°59'7 6.6
2015-Mar-21 17:33N 43°16' E 005°07'8 6.7
2015-Mar-21 16:22N 43°12' E 005°16'62 6.3
2015-Mar-21 06:32N 43°07' E 006°41'8 8.1
2015-Mar-21 05:33N 43°13' E 006°49'8 8.4
2015-Mar-21 04:33N 43°18' E 006°58'8 7.8
2015-Mar-21 03:33N 43°23' E 007°07'8 8.2
2015-Mar-21 02:33N 43°28' E 007°15'9 8.6
2015-Mar-21 01:33N 43°33' E 007°25'8 8.1
2015-Mar-21 00:33N 43°38' E 007°34'44 8.1
2015-Mar-20 19:07N 44°04' E 008°23'5 8.8
2015-Mar-20 18:33N 44°08' E 008°27'8 8.5
2015-Mar-20 17:33N 44°16' E 008°31'3 3.1
2015-Mar-20 16:33N 44°19' E 008°30'0 0.0
2015-Mar-20 15:33N 44°19' E 008°30'0 0.0
2015-Mar-20 14:33N 44°19' E 008°30'0 0.0
2015-Mar-20 13:33N 44°19' E 008°30'0 0.0
2015-Mar-20 12:33N 44°19' E 008°30'0 0.0
2015-Mar-20 11:33N 44°19' E 008°30'0 0.0
2015-Mar-20 10:33N 44°19' E 008°30'0 0.0
2015-Mar-20 09:33N 44°19' E 008°30'0 0.0
2015-Mar-20 08:33N 44°19' E 008°30'0 0.0
2015-Mar-20 07:33N 44°19' E 008°30'0 0.0
2015-Mar-20 06:33N 44°19' E 008°30'0 0.0
2015-Mar-20 05:32N 44°19' E 008°30'2 2.4
2015-Mar-20 04:33N 44°17' E 008°31'5 5.0
2015-Mar-20 03:33N 44°12' E 008°31'5 5.5
2015-Mar-20 02:33N 44°07' E 008°27'6 5.7
2015-Mar-20 01:33N 44°03' E 008°22'7 5.7
2015-Mar-20 00:19N 43°57' E 008°16'5 6.0
2015-Mar-19 23:32N 43°54' E 008°11'6 5.9
2015-Mar-19 22:33N 43°51' E 008°04'6 6.0
2015-Mar-19 21:33N 43°48' E 007°57'6 6.2
2015-Mar-19 20:33N 43°45' E 007°50'6 6.1
2015-Mar-19 19:33N 43°41' E 007°43'6 6.0
2015-Mar-19 18:32N 43°38' E 007°35'6 6.3
2015-Mar-19 17:32N 43°35' E 007°28'6 5.8
2015-Mar-19 16:33N 43°32' E 007°21'6 6.2
2015-Mar-19 15:33N 43°28' E 007°15'7 6.7
2015-Mar-19 14:33N 43°24' E 007°08'7 6.7
2015-Mar-19 13:33N 43°20' E 007°00'6 6.4
2015-Mar-19 12:33N 43°15' E 006°54'7 6.8
2015-Mar-19 11:29N 43°10' E 006°46'7 7.4
2015-Mar-19 10:33N 43°06' E 006°39'7 6.9
2015-Mar-19 09:33N 43°01' E 006°33'7 6.5
2015-Mar-19 08:33N 42°58' E 006°25'44 6.2
2015-Mar-19 01:32N 43°08' E 005°26'7 7.1
2015-Mar-19 00:31N 43°11' E 005°18'8 8.4
2015-Mar-18 23:33N 43°16' E 005°08'8 8.4
2015-Mar-18 22:33N 43°20' E 004°58'7 6.8
2015-Mar-18 21:33N 43°23' E 004°50'5 4.1
2015-Mar-18 20:18N 43°26' E 004°44'  

Dump ship's entire track history